sensor_id;sensor_type;location;lat;lon;timestamp;P1;durP1;ratioP1;P2;durP2;ratioP2
38427;SDS011;24211;49.980;19.776;2024-01-15T00:02:03;6.78;;;2.78;;
38427;SDS011;24211;49.980;19.776;2024-01-15T00:04:30;7.03;;;3.10;;
38427;SDS011;24211;49.980;19.776;2024-01-15T00:06:58;7.10;;;2.90;;
38427;SDS011;24211;49.980;19.776;2024-01-15T00:09:26;7.45;;;3.05;;
38427;SDS011;24211;49.980;19.776;2024-01-15T00:11:54;5.43;;;2.65;;
38427;SDS011;24211;49.980;19.776;2024-01-15T00:14:22;6.93;;;3.03;;
38427;SDS011;24211;49.980;19.776;2024-01-15T00:16:50;6.53;;;2.65;;
38427;SDS011;24211;49.980;19.776;2024-01-15T00:19:18;6.65;;;2.80;;
38427;SDS011;24211;49.980;19.776;2024-01-15T00:21:45;5.97;;;2.67;;
38427;SDS011;24211;49.980;19.776;2024-01-15T00:24:13;9.40;;;2.80;;
38427;SDS011;24211;49.980;19.776;2024-01-15T00:26:40;6.03;;;2.83;;
38427;SDS011;24211;49.980;19.776;2024-01-15T00:29:08;7.72;;;2.80;;
38427;SDS011;24211;49.980;19.776;2024-01-15T00:31:36;6.35;;;2.45;;
38427;SDS011;24211;49.980;19.776;2024-01-15T00:34:04;5.72;;;2.33;;
38427;SDS011;24211;49.980;19.776;2024-01-15T00:36:32;6.60;;;2.70;;
38427;SDS011;24211;49.980;19.776;2024-01-15T00:38:59;5.85;;;2.40;;
38427;SDS011;24211;49.980;19.776;2024-01-15T00:41:27;5.88;;;2.60;;
38427;SDS011;24211;49.980;19.776;2024-01-15T00:43:54;6.43;;;2.35;;
38427;SDS011;24211;49.980;19.776;2024-01-15T00:46:29;6.15;;;2.70;;
38427;SDS011;24211;49.980;19.776;2024-01-15T00:48:57;5.60;;;2.30;;
38427;SDS011;24211;49.980;19.776;2024-01-15T00:51:24;5.65;;;2.47;;
38427;SDS011;24211;49.980;19.776;2024-01-15T00:53:54;5.60;;;2.28;;
38427;SDS011;24211;49.980;19.776;2024-01-15T00:56:22;7.68;;;2.97;;
38427;SDS011;24211;49.980;19.776;2024-01-15T00:58:50;5.55;;;2.13;;
38427;SDS011;24211;49.980;19.776;2024-01-15T01:01:17;4.80;;;2.38;;
38427;SDS011;24211;49.980;19.776;2024-01-15T01:03:52;5.93;;;2.40;;
38427;SDS011;24211;49.980;19.776;2024-01-15T01:06:19;6.05;;;2.40;;
38427;SDS011;24211;49.980;19.776;2024-01-15T01:08:46;6.38;;;2.38;;
38427;SDS011;24211;49.980;19.776;2024-01-15T01:11:14;5.82;;;2.45;;
38427;SDS011;24211;49.980;19.776;2024-01-15T01:13:44;5.95;;;2.40;;
38427;SDS011;24211;49.980;19.776;2024-01-15T01:16:12;8.07;;;2.30;;
38427;SDS011;24211;49.980;19.776;2024-01-15T01:18:40;5.10;;;2.30;;
38427;SDS011;24211;49.980;19.776;2024-01-15T01:21:08;5.88;;;2.38;;
38427;SDS011;24211;49.980;19.776;2024-01-15T01:23:35;5.45;;;2.30;;
38427;SDS011;24211;49.980;19.776;2024-01-15T01:26:03;5.40;;;2.10;;
38427;SDS011;24211;49.980;19.776;2024-01-15T01:28:30;5.97;;;2.20;;
38427;SDS011;24211;49.980;19.776;2024-01-15T01:30:57;5.15;;;2.00;;
38427;SDS011;24211;49.980;19.776;2024-01-15T01:33:26;6.90;;;2.50;;
38427;SDS011;24211;49.980;19.776;2024-01-15T01:35:53;4.75;;;2.08;;
38427;SDS011;24211;49.980;19.776;2024-01-15T01:38:21;5.47;;;2.28;;
38427;SDS011;24211;49.980;19.776;2024-01-15T01:40:48;6.10;;;2.20;;
38427;SDS011;24211;49.980;19.776;2024-01-15T01:43:17;6.30;;;2.40;;
38427;SDS011;24211;49.980;19.776;2024-01-15T01:45:53;5.82;;;2.22;;
38427;SDS011;24211;49.980;19.776;2024-01-15T01:48:26;5.82;;;2.20;;
38427;SDS011;24211;49.980;19.776;2024-01-15T01:50:56;6.38;;;2.60;;
38427;SDS011;24211;49.980;19.776;2024-01-15T01:53:28;4.85;;;1.90;;
38427;SDS011;24211;49.980;19.776;2024-01-15T01:56:00;5.65;;;2.00;;
38427;SDS011;24211;49.980;19.776;2024-01-15T01:58:29;4.93;;;2.17;;
38427;SDS011;24211;49.980;19.776;2024-01-15T02:01:08;6.55;;;2.17;;
38427;SDS011;24211;49.980;19.776;2024-01-15T02:03:45;5.25;;;2.22;;
38427;SDS011;24211;49.980;19.776;2024-01-15T02:06:12;6.88;;;2.42;;
38427;SDS011;24211;49.980;19.776;2024-01-15T02:08:42;5.72;;;2.10;;
38427;SDS011;24211;49.980;19.776;2024-01-15T02:11:10;5.32;;;2.00;;
38427;SDS011;24211;49.980;19.776;2024-01-15T02:13:38;4.43;;;1.75;;
38427;SDS011;24211;49.980;19.776;2024-01-15T02:16:06;6.25;;;2.03;;
38427;SDS011;24211;49.980;19.776;2024-01-15T02:18:39;5.13;;;1.77;;
38427;SDS011;24211;49.980;19.776;2024-01-15T02:21:13;5.07;;;2.00;;
38427;SDS011;24211;49.980;19.776;2024-01-15T02:23:41;4.68;;;1.80;;
38427;SDS011;24211;49.980;19.776;2024-01-15T02:26:08;4.25;;;1.80;;
38427;SDS011;24211;49.980;19.776;2024-01-15T02:28:36;4.20;;;1.60;;
38427;SDS011;24211;49.980;19.776;2024-01-15T02:31:03;3.92;;;1.45;;
38427;SDS011;24211;49.980;19.776;2024-01-15T02:33:31;3.75;;;1.45;;
38427;SDS011;24211;49.980;19.776;2024-01-15T02:35:58;4.57;;;1.55;;
38427;SDS011;24211;49.980;19.776;2024-01-15T02:38:25;3.20;;;1.20;;
38427;SDS011;24211;49.980;19.776;2024-01-15T02:40:53;3.65;;;1.55;;
38427;SDS011;24211;49.980;19.776;2024-01-15T02:43:21;3.20;;;1.45;;
38427;SDS011;24211;49.980;19.776;2024-01-15T02:45:48;4.25;;;1.65;;
38427;SDS011;24211;49.980;19.776;2024-01-15T02:48:15;6.60;;;1.85;;
38427;SDS011;24211;49.980;19.776;2024-01-15T02:50:43;4.28;;;1.70;;
38427;SDS011;24211;49.980;19.776;2024-01-15T02:53:12;4.20;;;1.67;;
38427;SDS011;24211;49.980;19.776;2024-01-15T02:55:39;5.13;;;1.80;;
38427;SDS011;24211;49.980;19.776;2024-01-15T02:58:07;6.05;;;2.08;;
38427;SDS011;24211;49.980;19.776;2024-01-15T03:00:34;4.80;;;1.80;;
38427;SDS011;24211;49.980;19.776;2024-01-15T03:03:02;5.50;;;1.95;;
38427;SDS011;24211;49.980;19.776;2024-01-15T03:05:29;4.88;;;2.08;;
38427;SDS011;24211;49.980;19.776;2024-01-15T03:08:00;5.28;;;2.30;;
38427;SDS011;24211;49.980;19.776;2024-01-15T03:10:30;5.47;;;2.10;;
38427;SDS011;24211;49.980;19.776;2024-01-15T03:13:09;5.75;;;2.13;;
38427;SDS011;24211;49.980;19.776;2024-01-15T03:15:44;5.03;;;2.25;;
38427;SDS011;24211;49.980;19.776;2024-01-15T03:18:12;5.70;;;2.40;;
38427;SDS011;24211;49.980;19.776;2024-01-15T03:20:40;6.10;;;2.30;;
38427;SDS011;24211;49.980;19.776;2024-01-15T03:23:09;5.93;;;2.20;;
38427;SDS011;24211;49.980;19.776;2024-01-15T03:25:36;4.60;;;1.80;;
38427;SDS011;24211;49.980;19.776;2024-01-15T03:28:04;5.60;;;2.22;;
38427;SDS011;24211;49.980;19.776;2024-01-15T03:30:31;5.50;;;2.10;;
38427;SDS011;24211;49.980;19.776;2024-01-15T03:32:59;5.82;;;2.22;;
38427;SDS011;24211;49.980;19.776;2024-01-15T03:35:27;5.20;;;2.20;;
38427;SDS011;24211;49.980;19.776;2024-01-15T03:37:56;4.95;;;2.13;;
38427;SDS011;24211;49.980;19.776;2024-01-15T03:40:23;4.68;;;1.60;;
38427;SDS011;24211;49.980;19.776;2024-01-15T03:42:51;4.82;;;1.85;;
38427;SDS011;24211;49.980;19.776;2024-01-15T03:45:18;5.88;;;1.90;;
38427;SDS011;24211;49.980;19.776;2024-01-15T03:47:46;4.97;;;1.75;;
38427;SDS011;24211;49.980;19.776;2024-01-15T03:50:14;5.32;;;1.98;;
38427;SDS011;24211;49.980;19.776;2024-01-15T03:52:41;4.85;;;2.10;;
38427;SDS011;24211;49.980;19.776;2024-01-15T03:55:08;4.70;;;1.50;;
38427;SDS011;24211;49.980;19.776;2024-01-15T03:57:36;4.50;;;1.55;;
38427;SDS011;24211;49.980;19.776;2024-01-15T04:00:04;4.40;;;1.63;;
38427;SDS011;24211;49.980;19.776;2024-01-15T04:02:34;3.95;;;1.33;;
38427;SDS011;24211;49.980;19.776;2024-01-15T04:05:01;3.92;;;1.40;;
38427;SDS011;24211;49.980;19.776;2024-01-15T04:07:29;3.72;;;1.23;;
38427;SDS011;24211;49.980;19.776;2024-01-15T04:09:57;2.30;;;0.95;;
38427;SDS011;24211;49.980;19.776;2024-01-15T04:12:25;3.38;;;1.35;;
38427;SDS011;24211;49.980;19.776;2024-01-15T04:14:52;4.03;;;1.65;;
38427;SDS011;24211;49.980;19.776;2024-01-15T04:17:20;3.25;;;1.40;;
38427;SDS011;24211;49.980;19.776;2024-01-15T04:19:48;3.67;;;1.45;;
38427;SDS011;24211;49.980;19.776;2024-01-15T04:22:16;3.55;;;1.45;;
38427;SDS011;24211;49.980;19.776;2024-01-15T04:24:43;4.13;;;1.70;;
38427;SDS011;24211;49.980;19.776;2024-01-15T04:27:11;4.25;;;1.58;;
38427;SDS011;24211;49.980;19.776;2024-01-15T04:29:38;5.45;;;1.60;;
38427;SDS011;24211;49.980;19.776;2024-01-15T04:32:08;3.25;;;1.20;;
38427;SDS011;24211;49.980;19.776;2024-01-15T04:34:39;4.07;;;1.40;;
38427;SDS011;24211;49.980;19.776;2024-01-15T04:37:07;4.47;;;1.58;;
38427;SDS011;24211;49.980;19.776;2024-01-15T04:39:34;4.00;;;1.60;;
38427;SDS011;24211;49.980;19.776;2024-01-15T04:42:02;4.32;;;1.73;;
38427;SDS011;24211;49.980;19.776;2024-01-15T04:44:30;5.78;;;1.88;;
38427;SDS011;24211;49.980;19.776;2024-01-15T04:46:58;4.60;;;1.60;;
38427;SDS011;24211;49.980;19.776;2024-01-15T04:49:25;6.10;;;2.20;;
38427;SDS011;24211;49.980;19.776;2024-01-15T04:51:57;6.85;;;2.20;;
38427;SDS011;24211;49.980;19.776;2024-01-15T04:54:24;4.80;;;1.92;;
38427;SDS011;24211;49.980;19.776;2024-01-15T04:56:52;6.43;;;2.47;;
38427;SDS011;24211;49.980;19.776;2024-01-15T04:59:20;4.97;;;2.05;;
38427;SDS011;24211;49.980;19.776;2024-01-15T05:01:48;5.05;;;1.88;;
38427;SDS011;24211;49.980;19.776;2024-01-15T05:04:16;5.40;;;1.73;;
38427;SDS011;24211;49.980;19.776;2024-01-15T05:06:44;4.45;;;1.75;;
38427;SDS011;24211;49.980;19.776;2024-01-15T05:09:15;4.38;;;1.70;;
38427;SDS011;24211;49.980;19.776;2024-01-15T05:11:54;5.03;;;1.52;;
38427;SDS011;24211;49.980;19.776;2024-01-15T05:14:21;4.18;;;1.55;;
38427;SDS011;24211;49.980;19.776;2024-01-15T05:16:49;4.40;;;1.50;;
38427;SDS011;24211;49.980;19.776;2024-01-15T05:19:17;4.35;;;1.65;;
38427;SDS011;24211;49.980;19.776;2024-01-15T05:21:56;3.85;;;1.30;;
38427;SDS011;24211;49.980;19.776;2024-01-15T05:24:36;3.45;;;1.35;;
38427;SDS011;24211;49.980;19.776;2024-01-15T05:27:14;3.92;;;1.45;;
38427;SDS011;24211;49.980;19.776;2024-01-15T05:29:41;3.30;;;1.10;;
38427;SDS011;24211;49.980;19.776;2024-01-15T05:32:08;3.10;;;1.20;;
38427;SDS011;24211;49.980;19.776;2024-01-15T05:34:35;3.30;;;1.10;;
38427;SDS011;24211;49.980;19.776;2024-01-15T05:37:04;4.53;;;1.27;;
38427;SDS011;24211;49.980;19.776;2024-01-15T05:39:38;3.47;;;1.40;;
38427;SDS011;24211;49.980;19.776;2024-01-15T05:42:05;3.10;;;1.30;;
38427;SDS011;24211;49.980;19.776;2024-01-15T05:47:57;3.15;;;1.20;;
38427;SDS011;24211;49.980;19.776;2024-01-15T05:50:25;3.90;;;1.60;;
38427;SDS011;24211;49.980;19.776;2024-01-15T05:52:55;4.63;;;1.40;;
38427;SDS011;24211;49.980;19.776;2024-01-15T05:55:31;4.90;;;1.60;;
38427;SDS011;24211;49.980;19.776;2024-01-15T05:58:00;5.55;;;1.88;;
38427;SDS011;24211;49.980;19.776;2024-01-15T06:00:35;4.50;;;1.50;;
38427;SDS011;24211;49.980;19.776;2024-01-15T06:06:41;5.60;;;1.90;;
38427;SDS011;24211;49.980;19.776;2024-01-15T06:09:09;5.72;;;1.80;;
38427;SDS011;24211;49.980;19.776;2024-01-15T06:11:37;5.63;;;1.95;;
38427;SDS011;24211;49.980;19.776;2024-01-15T06:14:05;4.57;;;2.00;;
38427;SDS011;24211;49.980;19.776;2024-01-15T06:16:34;5.55;;;1.98;;
38427;SDS011;24211;49.980;19.776;2024-01-15T06:21:54;5.65;;;2.10;;
38427;SDS011;24211;49.980;19.776;2024-01-15T06:24:25;7.18;;;2.42;;
38427;SDS011;24211;49.980;19.776;2024-01-15T06:26:53;5.82;;;2.40;;
38427;SDS011;24211;49.980;19.776;2024-01-15T06:29:26;6.15;;;2.25;;
38427;SDS011;24211;49.980;19.776;2024-01-15T06:31:54;7.68;;;2.83;;
38427;SDS011;24211;49.980;19.776;2024-01-15T06:34:22;5.70;;;2.42;;
38427;SDS011;24211;49.980;19.776;2024-01-15T06:36:49;5.97;;;2.30;;
38427;SDS011;24211;49.980;19.776;2024-01-15T06:39:19;6.55;;;2.47;;
38427;SDS011;24211;49.980;19.776;2024-01-15T06:41:47;6.10;;;2.50;;
38427;SDS011;24211;49.980;19.776;2024-01-15T06:44:19;6.95;;;2.67;;
38427;SDS011;24211;49.980;19.776;2024-01-15T06:47:16;6.97;;;2.50;;
38427;SDS011;24211;49.980;19.776;2024-01-15T06:49:46;5.95;;;2.30;;
38427;SDS011;24211;49.980;19.776;2024-01-15T06:52:15;6.35;;;2.60;;
38427;SDS011;24211;49.980;19.776;2024-01-15T06:54:42;5.75;;;2.08;;
38427;SDS011;24211;49.980;19.776;2024-01-15T06:57:11;6.65;;;2.45;;
38427;SDS011;24211;49.980;19.776;2024-01-15T06:59:39;5.70;;;2.13;;
38427;SDS011;24211;49.980;19.776;2024-01-15T07:02:06;5.43;;;2.20;;
38427;SDS011;24211;49.980;19.776;2024-01-15T07:04:52;5.20;;;2.08;;
38427;SDS011;24211;49.980;19.776;2024-01-15T07:07:27;5.25;;;2.03;;
38427;SDS011;24211;49.980;19.776;2024-01-15T07:09:58;6.20;;;2.58;;
38427;SDS011;24211;49.980;19.776;2024-01-15T07:12:25;8.98;;;3.83;;
38427;SDS011;24211;49.980;19.776;2024-01-15T07:14:55;9.65;;;4.93;;
38427;SDS011;24211;49.980;19.776;2024-01-15T07:17:26;16.13;;;6.93;;
38427;SDS011;24211;49.980;19.776;2024-01-15T07:20:00;17.58;;;7.70;;
38427;SDS011;24211;49.980;19.776;2024-01-15T07:22:44;15.32;;;7.35;;
38427;SDS011;24211;49.980;19.776;2024-01-15T07:25:26;16.63;;;8.13;;
38427;SDS011;24211;49.980;19.776;2024-01-15T07:27:53;18.77;;;8.63;;
38427;SDS011;24211;49.980;19.776;2024-01-15T07:30:25;14.15;;;7.50;;
38427;SDS011;24211;49.980;19.776;2024-01-15T07:32:59;14.55;;;6.15;;
38427;SDS011;24211;49.980;19.776;2024-01-15T07:35:27;11.52;;;5.28;;
38427;SDS011;24211;49.980;19.776;2024-01-15T07:41:27;8.00;;;3.47;;
38427;SDS011;24211;49.980;19.776;2024-01-15T07:43:58;8.25;;;3.63;;
38427;SDS011;24211;49.980;19.776;2024-01-15T07:46:26;7.55;;;3.67;;
38427;SDS011;24211;49.980;19.776;2024-01-15T07:48:53;8.93;;;3.63;;
38427;SDS011;24211;49.980;19.776;2024-01-15T07:52:04;7.57;;;3.60;;
38427;SDS011;24211;49.980;19.776;2024-01-15T07:55:06;8.48;;;4.00;;
38427;SDS011;24211;49.980;19.776;2024-01-15T08:01:01;8.30;;;3.63;;
38427;SDS011;24211;49.980;19.776;2024-01-15T08:04:04;9.45;;;3.67;;
38427;SDS011;24211;49.980;19.776;2024-01-15T08:06:33;7.35;;;3.33;;
38427;SDS011;24211;49.980;19.776;2024-01-15T08:09:00;7.25;;;3.20;;
38427;SDS011;24211;49.980;19.776;2024-01-15T08:11:28;8.52;;;3.83;;
38427;SDS011;24211;49.980;19.776;2024-01-15T08:13:58;7.45;;;3.45;;
38427;SDS011;24211;49.980;19.776;2024-01-15T08:16:32;7.70;;;3.40;;
38427;SDS011;24211;49.980;19.776;2024-01-15T08:19:00;8.73;;;2.92;;
38427;SDS011;24211;49.980;19.776;2024-01-15T08:21:29;10.57;;;3.85;;
38427;SDS011;24211;49.980;19.776;2024-01-15T08:24:06;9.55;;;3.85;;
38427;SDS011;24211;49.980;19.776;2024-01-15T08:26:48;10.75;;;3.42;;
38427;SDS011;24211;49.980;19.776;2024-01-15T08:29:17;9.85;;;4.15;;
38427;SDS011;24211;49.980;19.776;2024-01-15T08:31:57;9.27;;;3.55;;
38427;SDS011;24211;49.980;19.776;2024-01-15T08:34:45;8.50;;;3.78;;
38427;SDS011;24211;49.980;19.776;2024-01-15T08:40:06;19.33;;;6.35;;
38427;SDS011;24211;49.980;19.776;2024-01-15T08:42:34;25.75;;;8.90;;
38427;SDS011;24211;49.980;19.776;2024-01-15T08:45:08;30.42;;;10.77;;
38427;SDS011;24211;49.980;19.776;2024-01-15T08:47:47;32.33;;;12.23;;
38427;SDS011;24211;49.980;19.776;2024-01-15T08:50:24;35.90;;;12.25;;
38427;SDS011;24211;49.980;19.776;2024-01-15T08:52:51;28.05;;;10.45;;
38427;SDS011;24211;49.980;19.776;2024-01-15T08:55:21;23.15;;;8.75;;
38427;SDS011;24211;49.980;19.776;2024-01-15T08:57:51;17.55;;;7.00;;
38427;SDS011;24211;49.980;19.776;2024-01-15T09:00:20;15.40;;;6.22;;
38427;SDS011;24211;49.980;19.776;2024-01-15T09:02:47;16.35;;;6.18;;
38427;SDS011;24211;49.980;19.776;2024-01-15T09:05:22;12.60;;;5.60;;
38427;SDS011;24211;49.980;19.776;2024-01-15T09:07:49;11.27;;;4.55;;
38427;SDS011;24211;49.980;19.776;2024-01-15T09:10:43;11.32;;;5.30;;
38427;SDS011;24211;49.980;19.776;2024-01-15T09:13:13;11.98;;;5.22;;
38427;SDS011;24211;49.980;19.776;2024-01-15T09:15:45;10.73;;;4.20;;
38427;SDS011;24211;49.980;19.776;2024-01-15T09:18:12;10.45;;;5.00;;
38427;SDS011;24211;49.980;19.776;2024-01-15T09:20:40;10.25;;;4.00;;
38427;SDS011;24211;49.980;19.776;2024-01-15T09:23:08;9.98;;;4.55;;
38427;SDS011;24211;49.980;19.776;2024-01-15T09:25:36;9.07;;;3.33;;
38427;SDS011;24211;49.980;19.776;2024-01-15T09:28:04;9.90;;;4.35;;
38427;SDS011;24211;49.980;19.776;2024-01-15T09:30:31;11.02;;;4.32;;
38427;SDS011;24211;49.980;19.776;2024-01-15T09:32:59;8.32;;;3.00;;
38427;SDS011;24211;49.980;19.776;2024-01-15T09:35:27;10.55;;;4.00;;
38427;SDS011;24211;49.980;19.776;2024-01-15T09:37:54;8.88;;;3.63;;
38427;SDS011;24211;49.980;19.776;2024-01-15T09:40:22;10.70;;;4.18;;
38427;SDS011;24211;49.980;19.776;2024-01-15T09:45:22;6.10;;;2.05;;
38427;SDS011;24211;49.980;19.776;2024-01-15T09:47:49;11.57;;;4.55;;
38427;SDS011;24211;49.980;19.776;2024-01-15T09:50:19;6.10;;;2.80;;
38427;SDS011;24211;49.980;19.776;2024-01-15T09:52:50;11.95;;;4.15;;
38427;SDS011;24211;49.980;19.776;2024-01-15T09:55:41;12.25;;;4.32;;
38427;SDS011;24211;49.980;19.776;2024-01-15T09:58:10;13.40;;;5.40;;
38427;SDS011;24211;49.980;19.776;2024-01-15T10:00:40;14.05;;;5.50;;
38427;SDS011;24211;49.980;19.776;2024-01-15T10:03:16;9.77;;;4.53;;
38427;SDS011;24211;49.980;19.776;2024-01-15T10:05:44;11.65;;;4.60;;
38427;SDS011;24211;49.980;19.776;2024-01-15T10:08:12;9.15;;;3.55;;
38427;SDS011;24211;49.980;19.776;2024-01-15T10:10:43;11.23;;;4.25;;
38427;SDS011;24211;49.980;19.776;2024-01-15T10:13:12;10.73;;;4.55;;
38427;SDS011;24211;49.980;19.776;2024-01-15T10:15:45;7.78;;;3.15;;
38427;SDS011;24211;49.980;19.776;2024-01-15T10:18:15;11.35;;;4.65;;
38427;SDS011;24211;49.980;19.776;2024-01-15T10:20:44;10.73;;;4.68;;
38427;SDS011;24211;49.980;19.776;2024-01-15T10:23:26;10.60;;;4.10;;
38427;SDS011;24211;49.980;19.776;2024-01-15T10:25:58;9.52;;;4.25;;
38427;SDS011;24211;49.980;19.776;2024-01-15T10:28:26;8.68;;;3.83;;
38427;SDS011;24211;49.980;19.776;2024-01-15T10:30:54;11.40;;;4.57;;
38427;SDS011;24211;49.980;19.776;2024-01-15T10:33:23;10.57;;;4.68;;
38427;SDS011;24211;49.980;19.776;2024-01-15T10:35:57;18.45;;;6.25;;
38427;SDS011;24211;49.980;19.776;2024-01-15T10:38:30;27.33;;;9.35;;
38427;SDS011;24211;49.980;19.776;2024-01-15T10:41:15;31.00;;;10.43;;
38427;SDS011;24211;49.980;19.776;2024-01-15T10:43:50;27.90;;;10.45;;
38427;SDS011;24211;49.980;19.776;2024-01-15T10:55:48;13.18;;;5.10;;
38427;SDS011;24211;49.980;19.776;2024-01-15T10:58:21;11.50;;;3.90;;
38427;SDS011;24211;49.980;19.776;2024-01-15T11:00:49;12.85;;;5.28;;
38427;SDS011;24211;49.980;19.776;2024-01-15T11:11:46;9.25;;;3.78;;
38427;SDS011;24211;49.980;19.776;2024-01-15T11:14:38;9.43;;;4.60;;
38427;SDS011;24211;49.980;19.776;2024-01-15T11:17:10;11.57;;;4.13;;
38427;SDS011;24211;49.980;19.776;2024-01-15T11:29:03;6.97;;;3.08;;
38427;SDS011;24211;49.980;19.776;2024-01-15T11:32:50;9.95;;;4.22;;
38427;SDS011;24211;49.980;19.776;2024-01-15T11:45:03;7.05;;;3.10;;
38427;SDS011;24211;49.980;19.776;2024-01-15T11:54:08;11.63;;;3.63;;
38427;SDS011;24211;49.980;19.776;2024-01-15T11:56:45;10.02;;;3.78;;
38427;SDS011;24211;49.980;19.776;2024-01-15T12:05:43;11.95;;;4.82;;
38427;SDS011;24211;49.980;19.776;2024-01-15T12:17:54;9.32;;;4.03;;
38427;SDS011;24211;49.980;19.776;2024-01-15T12:20:37;10.55;;;4.25;;
38427;SDS011;24211;49.980;19.776;2024-01-15T12:23:15;10.15;;;4.40;;
38427;SDS011;24211;49.980;19.776;2024-01-15T12:25:44;10.63;;;4.35;;
38427;SDS011;24211;49.980;19.776;2024-01-15T12:40:39;11.82;;;4.65;;
38427;SDS011;24211;49.980;19.776;2024-01-15T12:49:18;13.95;;;5.10;;
38427;SDS011;24211;49.980;19.776;2024-01-15T12:51:51;16.67;;;6.53;;
38427;SDS011;24211;49.980;19.776;2024-01-15T12:55:01;20.83;;;7.70;;
38427;SDS011;24211;49.980;19.776;2024-01-15T12:57:29;22.45;;;9.10;;
38427;SDS011;24211;49.980;19.776;2024-01-15T13:02:49;24.48;;;10.90;;
38427;SDS011;24211;49.980;19.776;2024-01-15T13:05:21;26.83;;;10.18;;
38427;SDS011;24211;49.980;19.776;2024-01-15T13:07:51;21.00;;;8.93;;
38427;SDS011;24211;49.980;19.776;2024-01-15T13:11:22;11.60;;;5.32;;
38427;SDS011;24211;49.980;19.776;2024-01-15T13:13:51;13.88;;;6.35;;
38427;SDS011;24211;49.980;19.776;2024-01-15T13:22:29;9.05;;;3.75;;
38427;SDS011;24211;49.980;19.776;2024-01-15T13:25:00;9.88;;;4.28;;
38427;SDS011;24211;49.980;19.776;2024-01-15T13:35:28;10.43;;;4.43;;
38427;SDS011;24211;49.980;19.776;2024-01-15T13:37:57;10.85;;;4.47;;
38427;SDS011;24211;49.980;19.776;2024-01-15T13:40:30;11.13;;;5.05;;
38427;SDS011;24211;49.980;19.776;2024-01-15T13:45:49;10.77;;;4.90;;
38427;SDS011;24211;49.980;19.776;2024-01-15T13:48:17;9.45;;;3.67;;
38427;SDS011;24211;49.980;19.776;2024-01-15T13:50:44;7.88;;;3.05;;
38427;SDS011;24211;49.980;19.776;2024-01-15T13:59:01;7.85;;;3.40;;
38427;SDS011;24211;49.980;19.776;2024-01-15T14:01:30;9.75;;;4.22;;
38427;SDS011;24211;49.980;19.776;2024-01-15T14:03:58;10.70;;;4.32;;
38427;SDS011;24211;49.980;19.776;2024-01-15T14:13:52;9.13;;;3.72;;
38427;SDS011;24211;49.980;19.776;2024-01-15T14:16:28;8.82;;;3.80;;
38427;SDS011;24211;49.980;19.776;2024-01-15T14:21:49;10.20;;;3.95;;
38427;SDS011;24211;49.980;19.776;2024-01-15T14:24:16;9.90;;;4.03;;
38427;SDS011;24211;49.980;19.776;2024-01-15T14:30:32;7.55;;;3.50;;
38427;SDS011;24211;49.980;19.776;2024-01-15T14:36:06;8.40;;;2.90;;
38427;SDS011;24211;49.980;19.776;2024-01-15T14:38:46;9.55;;;3.72;;
38427;SDS011;24211;49.980;19.776;2024-01-15T14:41:30;11.98;;;4.70;;
38427;SDS011;24211;49.980;19.776;2024-01-15T14:46:51;13.70;;;6.10;;
38427;SDS011;24211;49.980;19.776;2024-01-15T14:49:18;11.93;;;4.43;;
38427;SDS011;24211;49.980;19.776;2024-01-15T14:51:48;16.52;;;7.40;;
38427;SDS011;24211;49.980;19.776;2024-01-15T14:57:09;14.18;;;6.60;;
38427;SDS011;24211;49.980;19.776;2024-01-15T15:02:48;14.10;;;5.70;;
38427;SDS011;24211;49.980;19.776;2024-01-15T15:05:19;12.80;;;6.30;;
38427;SDS011;24211;49.980;19.776;2024-01-15T15:10:57;12.65;;;5.20;;
38427;SDS011;24211;49.980;19.776;2024-01-15T15:13:25;14.52;;;4.95;;
38427;SDS011;24211;49.980;19.776;2024-01-15T15:16:12;10.07;;;4.60;;
38427;SDS011;24211;49.980;19.776;2024-01-15T15:18:41;13.45;;;4.97;;
38427;SDS011;24211;49.980;19.776;2024-01-15T15:21:10;12.65;;;5.10;;
38427;SDS011;24211;49.980;19.776;2024-01-15T15:36:06;16.15;;;6.80;;
38427;SDS011;24211;49.980;19.776;2024-01-15T15:38:37;13.05;;;5.95;;
38427;SDS011;24211;49.980;19.776;2024-01-15T15:41:06;12.85;;;5.78;;
38427;SDS011;24211;49.980;19.776;2024-01-15T15:44:13;11.17;;;5.17;;
38427;SDS011;24211;49.980;19.776;2024-01-15T15:46:44;11.02;;;4.07;;
38427;SDS011;24211;49.980;19.776;2024-01-15T15:49:11;9.88;;;4.50;;
38427;SDS011;24211;49.980;19.776;2024-01-15T15:51:40;11.13;;;4.88;;
38427;SDS011;24211;49.980;19.776;2024-01-15T15:54:30;13.73;;;5.15;;
38427;SDS011;24211;49.980;19.776;2024-01-15T15:56:58;11.32;;;5.20;;
38427;SDS011;24211;49.980;19.776;2024-01-15T16:02:24;10.80;;;5.03;;
38427;SDS011;24211;49.980;19.776;2024-01-15T16:04:57;11.23;;;4.78;;
38427;SDS011;24211;49.980;19.776;2024-01-15T16:07:34;13.48;;;5.15;;
38427;SDS011;24211;49.980;19.776;2024-01-15T16:10:04;11.48;;;4.68;;
38427;SDS011;24211;49.980;19.776;2024-01-15T16:12:33;12.00;;;4.63;;
38427;SDS011;24211;49.980;19.776;2024-01-15T16:15:20;11.80;;;4.88;;
38427;SDS011;24211;49.980;19.776;2024-01-15T16:17:50;11.00;;;4.35;;
38427;SDS011;24211;49.980;19.776;2024-01-15T16:20:39;13.55;;;4.75;;
38427;SDS011;24211;49.980;19.776;2024-01-15T16:23:29;11.60;;;4.40;;
38427;SDS011;24211;49.980;19.776;2024-01-15T16:26:22;11.65;;;4.50;;
38427;SDS011;24211;49.980;19.776;2024-01-15T16:28:50;11.00;;;4.50;;
38427;SDS011;24211;49.980;19.776;2024-01-15T16:31:17;10.43;;;4.15;;
38427;SDS011;24211;49.980;19.776;2024-01-15T16:33:51;10.68;;;4.20;;
38427;SDS011;24211;49.980;19.776;2024-01-15T16:36:27;10.38;;;4.15;;
38427;SDS011;24211;49.980;19.776;2024-01-15T16:38:56;10.98;;;4.18;;
38427;SDS011;24211;49.980;19.776;2024-01-15T16:41:25;11.07;;;4.32;;
38427;SDS011;24211;49.980;19.776;2024-01-15T16:43:52;10.80;;;4.75;;
38427;SDS011;24211;49.980;19.776;2024-01-15T16:46:21;10.02;;;3.35;;
38427;SDS011;24211;49.980;19.776;2024-01-15T16:48:48;12.77;;;4.38;;
38427;SDS011;24211;49.980;19.776;2024-01-15T16:51:15;10.43;;;3.90;;
38427;SDS011;24211;49.980;19.776;2024-01-15T16:53:49;10.32;;;4.35;;
38427;SDS011;24211;49.980;19.776;2024-01-15T16:56:16;11.50;;;4.68;;
38427;SDS011;24211;49.980;19.776;2024-01-15T16:58:44;12.80;;;4.68;;
38427;SDS011;24211;49.980;19.776;2024-01-15T17:01:14;11.82;;;4.63;;
38427;SDS011;24211;49.980;19.776;2024-01-15T17:03:42;10.98;;;4.80;;
38427;SDS011;24211;49.980;19.776;2024-01-15T17:06:09;11.98;;;4.40;;
38427;SDS011;24211;49.980;19.776;2024-01-15T17:08:36;13.20;;;4.70;;
38427;SDS011;24211;49.980;19.776;2024-01-15T17:11:06;10.30;;;4.30;;
38427;SDS011;24211;49.980;19.776;2024-01-15T17:13:35;9.50;;;4.20;;
38427;SDS011;24211;49.980;19.776;2024-01-15T17:16:04;9.82;;;4.45;;
38427;SDS011;24211;49.980;19.776;2024-01-15T17:18:32;9.95;;;4.25;;
38427;SDS011;24211;49.980;19.776;2024-01-15T17:21:00;13.05;;;4.55;;
38427;SDS011;24211;49.980;19.776;2024-01-15T17:23:28;12.60;;;4.72;;
38427;SDS011;24211;49.980;19.776;2024-01-15T17:25:57;12.75;;;4.32;;
38427;SDS011;24211;49.980;19.776;2024-01-15T17:28:26;12.45;;;5.05;;
38427;SDS011;24211;49.980;19.776;2024-01-15T17:31:02;9.52;;;4.35;;
38427;SDS011;24211;49.980;19.776;2024-01-15T17:33:33;12.68;;;4.90;;
38427;SDS011;24211;49.980;19.776;2024-01-15T17:36:00;12.57;;;4.85;;
38427;SDS011;24211;49.980;19.776;2024-01-15T17:38:29;12.65;;;4.85;;
38427;SDS011;24211;49.980;19.776;2024-01-15T17:40:56;11.23;;;4.32;;
38427;SDS011;24211;49.980;19.776;2024-01-15T17:43:24;13.15;;;4.95;;